createdAt,value
2018-03-31T00:01:38.894Z,8.07
2018-03-31T00:04:06.456Z,8.17
2018-03-31T00:06:34.032Z,8.27
2018-03-31T00:09:01.666Z,7.95
2018-03-31T00:11:29.237Z,7.60
2018-03-31T00:13:56.797Z,8.06
2018-03-31T00:16:24.368Z,8.22
2018-03-31T00:18:52.133Z,8.25
2018-03-31T00:21:19.887Z,8.04
2018-03-31T00:23:47.589Z,8.04
2018-03-31T00:26:15.555Z,7.29
2018-03-31T00:28:43.529Z,7.45
2018-03-31T00:31:11.083Z,7.25
2018-03-31T00:33:39.219Z,7.61
2018-03-31T00:36:06.780Z,7.87
2018-03-31T00:38:34.484Z,7.76
2018-03-31T00:41:02.454Z,7.42
2018-03-31T00:43:30.411Z,7.22
2018-03-31T00:45:58.548Z,7.45
2018-03-31T00:48:26.207Z,7.41
2018-03-31T00:50:53.767Z,7.81
2018-03-31T00:53:21.327Z,7.19
2018-03-31T00:55:48.884Z,7.24
2018-03-31T00:58:16.449Z,7.53
2018-03-31T01:00:44.140Z,7.03
2018-03-31T01:03:11.878Z,7.49
2018-03-31T01:05:39.446Z,7.23
2018-03-31T01:08:07.091Z,7.52
2018-03-31T01:10:34.651Z,7.78
2018-03-31T01:13:02.232Z,7.48
2018-03-31T01:15:29.783Z,7.54
2018-03-31T01:17:57.448Z,7.06
2018-03-31T01:20:25.006Z,6.99
2018-03-31T01:22:52.575Z,7.13
2018-03-31T01:25:20.133Z,7.27
2018-03-31T01:27:47.796Z,7.29
2018-03-31T01:30:15.381Z,7.51
2018-03-31T01:32:43.351Z,7.79
2018-03-31T01:35:11.311Z,7.30
2018-03-31T01:37:38.884Z,7.59
2018-03-31T01:40:06.651Z,7.23
2018-03-31T01:42:34.475Z,7.34
2018-03-31T01:45:02.132Z,7.08
2018-03-31T01:47:29.702Z,7.34
2018-03-31T01:49:57.375Z,7.37
2018-03-31T01:52:24.952Z,6.87
2018-03-31T01:54:52.516Z,6.75
2018-03-31T01:57:20.488Z,7.03
2018-03-31T01:59:48.412Z,7.11
2018-03-31T02:02:15.975Z,7.35
2018-03-31T02:04:43.544Z,7.38
2018-03-31T02:07:11.195Z,6.92
2018-03-31T02:09:38.765Z,7.24
2018-03-31T02:12:06.357Z,6.51
2018-03-31T02:14:34.405Z,6.28
2018-03-31T02:17:02.250Z,6.55
2018-03-31T02:19:29.817Z,6.73
2018-03-31T02:21:57.391Z,6.73
2018-03-31T02:24:24.974Z,7.04
2018-03-31T02:26:52.597Z,6.83
2018-03-31T02:29:20.152Z,6.66
2018-03-31T02:31:47.717Z,6.53
2018-03-31T02:34:15.305Z,6.79
2018-03-31T02:36:43.034Z,6.61
2018-03-31T02:39:10.698Z,6.94
2018-03-31T02:41:38.541Z,6.40
2018-03-31T02:44:06.124Z,6.60
2018-03-31T02:46:33.707Z,6.51
2018-03-31T02:49:01.357Z,6.46
2018-03-31T02:51:28.921Z,7.01
2018-03-31T02:53:56.484Z,7.15
2018-03-31T02:56:24.070Z,6.78
2018-03-31T02:58:52.035Z,6.30
2018-03-31T03:01:20.080Z,6.30
2018-03-31T03:03:47.651Z,6.60
2018-03-31T03:06:15.250Z,6.47
2018-03-31T03:08:42.853Z,6.14
2018-03-31T03:11:10.426Z,6.51
2018-03-31T03:13:38.168Z,6.89
2018-03-31T03:16:05.731Z,6.78
2018-03-31T03:18:33.286Z,6.14
2018-03-31T03:21:00.868Z,5.90
2018-03-31T03:23:28.533Z,6.19
2018-03-31T03:25:56.241Z,6.81
2018-03-31T03:28:24.197Z,6.10
2018-03-31T03:30:52.333Z,6.29
2018-03-31T03:33:19.906Z,5.83
2018-03-31T03:35:47.548Z,6.40
2018-03-31T03:38:15.112Z,6.27
2018-03-31T03:40:42.865Z,6.29
2018-03-31T03:43:10.423Z,6.95
2018-03-31T03:45:38.024Z,6.81
2018-03-31T03:48:05.970Z,6.06
2018-03-31T03:50:33.734Z,6.43
2018-03-31T03:53:01.486Z,6.35
2018-03-31T03:55:29.065Z,6.02
2018-03-31T03:57:56.820Z,6.61
2018-03-31T04:00:24.478Z,6.22
2018-03-31T04:02:52.027Z,6.57
2018-03-31T04:05:19.602Z,6.35
2018-03-31T04:07:47.185Z,6.80
2018-03-31T04:10:15.198Z,6.96
2018-03-31T04:12:42.760Z,6.76
2018-03-31T04:15:10.323Z,6.54
2018-03-31T04:17:37.884Z,6.29
2018-03-31T04:20:05.470Z,6.75
2018-03-31T04:22:33.130Z,6.67
2018-03-31T04:25:00.776Z,6.94
2018-03-31T04:27:28.355Z,6.97
2018-03-31T04:29:55.918Z,7.27
2018-03-31T04:32:23.493Z,7.33
2018-03-31T04:34:51.070Z,6.86
2018-03-31T04:37:19.026Z,7.03
2018-03-31T04:39:46.986Z,7.35
2018-03-31T04:42:14.572Z,6.78
2018-03-31T04:44:42.607Z,6.50
2018-03-31T04:47:10.220Z,6.56
2018-03-31T04:49:37.807Z,6.51
2018-03-31T04:52:05.380Z,6.79
2018-03-31T04:54:32.947Z,7.31
2018-03-31T04:57:00.591Z,7.34
2018-03-31T04:59:28.163Z,7.32
2018-03-31T05:01:55.742Z,7.28
2018-03-31T05:04:23.340Z,7.41
2018-03-31T05:06:50.912Z,7.38
2018-03-31T05:09:18.503Z,7.54
2018-03-31T05:11:46.063Z,7.14
2018-03-31T05:14:13.746Z,6.64
2018-03-31T05:16:41.478Z,7.04
2018-03-31T05:19:09.035Z,7.17
2018-03-31T05:21:36.590Z,7.69
2018-03-31T05:24:04.145Z,7.68
2018-03-31T05:26:31.705Z,7.38
2018-03-31T05:28:59.259Z,7.45
2018-03-31T05:31:26.866Z,7.55
2018-03-31T05:33:54.609Z,7.49
2018-03-31T05:36:22.183Z,7.21
2018-03-31T05:38:49.818Z,7.52
2018-03-31T05:41:17.375Z,7.64
2018-03-31T05:43:44.962Z,7.41
2018-03-31T05:46:12.544Z,7.30
2018-03-31T05:48:40.592Z,7.65
2018-03-31T05:51:08.148Z,7.58
2018-03-31T05:53:35.718Z,7.39
2018-03-31T05:56:03.355Z,7.43
2018-03-31T05:58:30.916Z,7.68
2018-03-31T06:00:58.465Z,7.44
2018-03-31T06:03:26.058Z,7.18
2018-03-31T06:05:53.727Z,7.18
2018-03-31T06:08:21.281Z,7.15
2018-03-31T06:10:49.012Z,6.98
2018-03-31T06:13:16.619Z,7.19
2018-03-31T06:15:44.692Z,7.04
2018-03-31T06:18:12.655Z,6.88
2018-03-31T06:20:40.630Z,7.14
2018-03-31T06:23:08.214Z,7.04
2018-03-31T06:25:35.789Z,7.27
2018-03-31T06:28:03.370Z,7.27
2018-03-31T06:30:30.994Z,7.75
2018-03-31T06:32:58.551Z,7.05
2018-03-31T06:35:26.127Z,7.45
2018-03-31T06:37:53.695Z,7.40
2018-03-31T06:40:21.280Z,7.06
2018-03-31T06:42:48.944Z,7.16
2018-03-31T06:45:16.502Z,7.05
2018-03-31T06:47:44.099Z,6.81
2018-03-31T06:50:12.132Z,7.24
2018-03-31T06:52:39.728Z,7.14
2018-03-31T06:55:07.698Z,7.16
2018-03-31T06:57:35.694Z,7.31
2018-03-31T07:00:03.298Z,7.69
2018-03-31T07:02:30.987Z,7.20
2018-03-31T07:04:58.943Z,7.00
2018-03-31T07:07:26.499Z,7.24
2018-03-31T07:09:54.052Z,6.97
2018-03-31T07:12:21.624Z,7.08
2018-03-31T07:14:49.199Z,6.84
2018-03-31T07:17:16.961Z,6.27
2018-03-31T07:19:44.916Z,6.66
2018-03-31T07:22:12.549Z,6.70
2018-03-31T07:24:40.088Z,6.69
2018-03-31T07:27:07.685Z,6.88
2018-03-31T07:29:35.253Z,6.83
2018-03-31T07:32:02.810Z,6.57
2018-03-31T07:34:30.375Z,6.49
2018-03-31T07:36:57.945Z,6.52
2018-03-31T07:39:25.509Z,6.77
2018-03-31T07:41:53.485Z,6.50
2018-03-31T07:44:21.511Z,6.44
2018-03-31T07:46:49.203Z,6.47
2018-03-31T07:49:16.763Z,6.47
2018-03-31T07:51:44.340Z,6.48
2018-03-31T07:54:12.290Z,6.78
2018-03-31T07:56:39.920Z,6.63
2018-03-31T07:59:07.500Z,6.28
2018-03-31T08:01:35.161Z,6.59
2018-03-31T08:04:02.721Z,7.09
2018-03-31T08:06:30.311Z,7.38
2018-03-31T08:08:58.285Z,7.25
2018-03-31T08:11:25.868Z,7.04
2018-03-31T08:16:52.346Z,7.98
2018-03-31T08:19:19.910Z,7.47
2018-03-31T08:21:47.493Z,7.61
2018-03-31T08:24:15.087Z,7.38
2018-03-31T08:26:42.699Z,7.47
2018-03-31T08:29:10.283Z,7.78
2018-03-31T08:31:38.438Z,7.63
2018-03-31T08:34:06.033Z,7.30
2018-03-31T08:36:33.983Z,7.29
2018-03-31T08:39:01.623Z,7.31
2018-03-31T08:41:29.202Z,7.75
2018-03-31T08:43:56.852Z,7.64
2018-03-31T08:46:24.456Z,7.89
2018-03-31T08:48:52.012Z,7.78
2018-03-31T08:51:19.980Z,8.06
2018-03-31T08:53:47.946Z,8.02
2018-03-31T08:56:15.988Z,7.74
2018-03-31T08:58:43.661Z,7.89
2018-03-31T09:01:11.240Z,8.30
2018-03-31T09:03:38.817Z,7.65
2018-03-31T09:06:06.442Z,7.96
2018-03-31T09:08:34.039Z,7.60
2018-03-31T09:11:01.648Z,8.32
2018-03-31T09:13:29.233Z,8.61
2018-03-31T09:15:57.282Z,8.36
2018-03-31T09:18:24.958Z,8.35
2018-03-31T09:20:52.525Z,8.33
2018-03-31T09:23:20.672Z,7.87
2018-03-31T09:25:48.234Z,7.89
2018-03-31T09:28:15.846Z,8.14
2018-03-31T09:30:43.415Z,8.30
2018-03-31T09:33:11.010Z,8.70
2018-03-31T09:35:38.570Z,8.68
2018-03-31T09:38:06.142Z,8.26
2018-03-31T09:40:33.881Z,8.03
2018-03-31T09:43:01.467Z,8.67
2018-03-31T09:45:29.034Z,9.03
2018-03-31T09:47:56.607Z,9.08
2018-03-31T09:50:24.572Z,8.66
2018-03-31T09:52:52.537Z,8.26
2018-03-31T09:55:20.595Z,8.20
2018-03-31T09:57:48.236Z,9.04
2018-03-31T10:00:15.817Z,9.21
2018-03-31T10:02:43.391Z,9.08
2018-03-31T10:05:11.380Z,8.51
2018-03-31T10:07:39.404Z,8.52
2018-03-31T10:10:06.988Z,8.64
2018-03-31T10:12:34.604Z,8.02
2018-03-31T10:15:02.155Z,8.49
2018-03-31T10:17:29.772Z,8.60
2018-03-31T10:19:57.731Z,7.72
2018-03-31T10:22:25.305Z,7.94
2018-03-31T10:24:53.303Z,7.64
2018-03-31T10:27:20.875Z,8.43
2018-03-31T10:29:48.440Z,8.85
2018-03-31T10:32:16.025Z,8.97
2018-03-31T10:34:43.583Z,8.22
2018-03-31T10:37:11.160Z,8.71
2018-03-31T10:39:38.727Z,8.89
2018-03-31T10:42:06.705Z,9.42
2018-03-31T10:44:34.667Z,9.11
2018-03-31T10:47:02.231Z,9.83
2018-03-31T10:49:30.220Z,9.42
2018-03-31T10:51:57.783Z,9.56
2018-03-31T10:54:25.345Z,9.52
2018-03-31T10:56:52.925Z,9.70
2018-03-31T10:59:20.481Z,9.43
2018-03-31T11:01:48.061Z,9.54
2018-03-31T11:04:15.623Z,9.85
2018-03-31T11:06:43.199Z,10.26
2018-03-31T11:09:10.859Z,9.72
2018-03-31T11:11:38.446Z,9.71
2018-03-31T11:14:06.591Z,9.61
2018-03-31T11:16:34.160Z,9.53
2018-03-31T11:19:01.734Z,9.75
2018-03-31T11:21:29.700Z,9.89
2018-03-31T11:23:57.272Z,10.37
2018-03-31T11:26:25.234Z,10.17
2018-03-31T11:28:53.194Z,9.83
2018-03-31T11:31:20.751Z,9.24
2018-03-31T11:33:48.332Z,9.13
2018-03-31T11:36:16.283Z,9.59
2018-03-31T11:38:44.301Z,9.82
2018-03-31T11:41:11.869Z,10.14
2018-03-31T11:43:39.455Z,9.76
2018-03-31T11:46:07.160Z,9.82
2018-03-31T11:48:34.756Z,9.42
2018-03-31T11:51:02.518Z,9.55
2018-03-31T11:53:30.195Z,9.25
2018-03-31T11:55:57.787Z,9.50
2018-03-31T11:58:25.361Z,9.60
2018-03-31T12:00:53.349Z,10.03
2018-03-31T12:03:20.946Z,10.09
2018-03-31T12:05:48.506Z,10.27
2018-03-31T12:08:16.081Z,9.88
2018-03-31T12:10:43.635Z,9.73
2018-03-31T12:13:11.304Z,10.09
2018-03-31T12:15:38.880Z,10.39
2018-03-31T12:18:06.913Z,10.68
2018-03-31T12:20:34.493Z,10.68
2018-03-31T12:23:02.298Z,10.54
2018-03-31T12:25:30.268Z,10.82
2018-03-31T12:27:57.872Z,10.90
2018-03-31T12:30:25.482Z,10.69
2018-03-31T12:32:53.461Z,10.91
2018-03-31T12:35:21.041Z,10.82
2018-03-31T12:37:48.636Z,11.34
2018-03-31T12:40:16.415Z,11.53
2018-03-31T12:42:44.028Z,11.55
2018-03-31T12:45:11.628Z,11.63
2018-03-31T12:47:39.377Z,11.40
2018-03-31T12:50:06.952Z,11.51
2018-03-31T12:52:34.528Z,11.18
2018-03-31T12:55:02.488Z,11.08
2018-03-31T12:57:30.101Z,11.44
2018-03-31T12:59:58.072Z,11.41
2018-03-31T13:02:25.700Z,11.77
2018-03-31T13:04:53.684Z,11.73
2018-03-31T13:07:21.270Z,12.08
2018-03-31T13:09:48.839Z,11.96
2018-03-31T13:12:16.415Z,11.68
2018-03-31T13:14:43.977Z,12.03
2018-03-31T13:17:11.555Z,12.09
2018-03-31T13:19:39.124Z,11.69
2018-03-31T13:22:06.716Z,11.75
2018-03-31T13:24:34.297Z,11.58
2018-03-31T13:27:01.881Z,11.64
2018-03-31T13:29:29.443Z,11.75
2018-03-31T13:31:57.011Z,11.75
2018-03-31T13:34:24.639Z,11.74
2018-03-31T13:36:52.216Z,11.58
2018-03-31T13:39:19.868Z,11.71
2018-03-31T13:41:47.505Z,11.42
2018-03-31T13:44:15.236Z,11.88
2018-03-31T13:46:43.271Z,11.86
2018-03-31T13:49:10.832Z,11.90
2018-03-31T13:51:38.497Z,12.06
2018-03-31T13:54:06.174Z,12.05
2018-03-31T13:56:33.744Z,12.03
2018-03-31T13:59:01.724Z,11.91
2018-03-31T14:01:29.691Z,11.89
2018-03-31T14:03:57.728Z,11.83
2018-03-31T14:06:25.308Z,11.60
2018-03-31T14:08:53.311Z,11.01
2018-03-31T14:11:20.886Z,11.31
2018-03-31T14:13:48.499Z,11.28
2018-03-31T14:16:16.065Z,11.51
2018-03-31T14:18:43.632Z,11.37
2018-03-31T14:21:11.594Z,11.70
2018-03-31T14:23:39.222Z,11.54
2018-03-31T14:26:06.815Z,11.70
2018-03-31T14:28:34.385Z,11.94
2018-03-31T14:31:02.023Z,11.97
2018-03-31T14:33:29.614Z,12.07
2018-03-31T14:35:57.662Z,12.11
2018-03-31T14:38:25.267Z,12.16
2018-03-31T14:40:52.841Z,12.03
2018-03-31T14:43:20.545Z,11.90
2018-03-31T14:45:48.113Z,12.12
2018-03-31T14:48:16.073Z,12.29
2018-03-31T14:50:43.635Z,12.24
2018-03-31T14:53:11.231Z,11.90
2018-03-31T14:55:38.811Z,12.10
2018-03-31T14:58:06.408Z,12.24
2018-03-31T15:00:33.994Z,12.22
2018-03-31T15:03:01.570Z,12.08
2018-03-31T15:05:29.262Z,12.23
2018-03-31T15:07:56.866Z,12.10
2018-03-31T15:10:24.870Z,12.36
2018-03-31T15:12:52.457Z,12.31
2018-03-31T15:15:21.693Z,12.21
2018-03-31T15:17:49.335Z,12.41
2018-03-31T15:20:16.926Z,12.09
2018-03-31T15:22:44.884Z,12.01
2018-03-31T15:25:12.463Z,12.01
2018-03-31T15:27:40.084Z,11.84
2018-03-31T15:30:07.681Z,11.77
2018-03-31T15:32:35.668Z,12.22
2018-03-31T15:35:03.245Z,12.27
2018-03-31T15:37:30.832Z,12.41
2018-03-31T15:39:58.472Z,12.54
2018-03-31T15:42:26.035Z,12.16
2018-03-31T15:44:53.630Z,12.46
2018-03-31T15:47:21.206Z,12.62
2018-03-31T15:49:49.173Z,12.58
2018-03-31T15:52:17.128Z,12.61
2018-03-31T15:54:44.698Z,12.57
2018-03-31T15:57:12.656Z,12.60
2018-03-31T15:59:40.246Z,12.52
2018-03-31T16:02:07.833Z,12.76
2018-03-31T16:04:35.408Z,12.79
2018-03-31T16:07:03.080Z,12.93
2018-03-31T16:09:30.654Z,12.75
2018-03-31T16:11:58.273Z,12.65
2018-03-31T16:14:25.837Z,12.81
2018-03-31T16:16:53.408Z,12.88
2018-03-31T16:19:20.971Z,12.92
2018-03-31T16:21:48.569Z,12.76
2018-03-31T16:24:16.290Z,12.71
2018-03-31T16:26:43.867Z,12.58
2018-03-31T16:29:11.527Z,12.64
2018-03-31T16:31:39.196Z,12.30
2018-03-31T16:34:06.784Z,12.47
2018-03-31T16:36:34.368Z,12.35
2018-03-31T16:39:01.968Z,12.12
2018-03-31T16:41:29.540Z,12.37
2018-03-31T16:43:57.124Z,12.41
2018-03-31T16:46:25.093Z,12.30
2018-03-31T16:48:53.067Z,12.48
2018-03-31T16:51:20.655Z,12.50
2018-03-31T16:53:48.232Z,12.39
2018-03-31T16:56:15.886Z,12.17
2018-03-31T16:58:43.852Z,12.19
2018-03-31T17:01:11.529Z,11.99
2018-03-31T17:03:39.132Z,12.03
2018-03-31T17:06:07.118Z,12.13
2018-03-31T17:08:35.101Z,11.99
2018-03-31T17:11:02.687Z,11.99
2018-03-31T17:13:30.241Z,12.28
2018-03-31T17:15:57.827Z,12.23
2018-03-31T17:18:25.384Z,12.21
2018-03-31T17:20:52.946Z,11.92
2018-03-31T17:23:20.525Z,11.79
2018-03-31T17:25:48.084Z,12.00
2018-03-31T17:28:15.731Z,11.91
2018-03-31T17:30:43.299Z,11.96
2018-03-31T17:33:11.087Z,11.83
2018-03-31T17:35:39.063Z,12.04
2018-03-31T17:38:07.064Z,12.11
2018-03-31T17:40:34.651Z,12.19
2018-03-31T17:43:02.240Z,12.23
2018-03-31T17:45:29.803Z,12.25
2018-03-31T17:47:57.796Z,12.26
2018-03-31T17:50:25.359Z,11.94
2018-03-31T17:52:52.957Z,12.07
2018-03-31T17:55:20.540Z,12.09
2018-03-31T17:57:48.220Z,12.08
2018-03-31T18:00:16.209Z,12.05
2018-03-31T18:02:43.796Z,11.85
2018-03-31T18:05:11.375Z,11.88
2018-03-31T18:07:38.978Z,11.93
2018-03-31T18:10:06.989Z,11.99
2018-03-31T18:12:34.675Z,12.05
2018-03-31T18:15:02.243Z,12.12
2018-03-31T18:17:29.832Z,12.02
2018-03-31T18:19:57.450Z,12.11
2018-03-31T18:22:25.018Z,12.14
2018-03-31T18:24:52.583Z,12.09
2018-03-31T18:27:20.194Z,12.13
2018-03-31T18:29:47.759Z,12.07
2018-03-31T18:32:15.339Z,12.02
2018-03-31T18:34:42.909Z,11.80
2018-03-31T18:37:11.251Z,11.62
2018-03-31T18:39:38.913Z,11.63
2018-03-31T18:42:06.545Z,11.70
2018-03-31T18:44:34.523Z,11.66
2018-03-31T18:47:02.567Z,11.68
2018-03-31T18:49:30.156Z,11.72
2018-03-31T18:51:58.200Z,11.53
2018-03-31T18:54:25.752Z,11.64
2018-03-31T18:56:53.360Z,11.56
2018-03-31T18:59:20.915Z,11.59
2018-03-31T19:01:48.541Z,11.40
2018-03-31T19:04:16.547Z,11.39
2018-03-31T19:06:44.520Z,11.35
2018-03-31T19:09:12.092Z,11.26
2018-03-31T19:11:39.692Z,11.32
2018-03-31T19:14:07.316Z,11.26
2018-03-31T19:16:40.370Z,11.22
2018-03-31T19:19:07.958Z,11.10
2018-03-31T19:21:35.554Z,11.04
2018-03-31T19:24:03.118Z,10.85
2018-03-31T19:26:30.763Z,10.92
2018-03-31T19:28:58.416Z,10.83
2018-03-31T19:31:26.015Z,10.78
2018-03-31T19:33:53.576Z,10.64
2018-03-31T19:36:21.953Z,10.55
2018-03-31T19:38:49.519Z,10.75
2018-03-31T19:41:17.553Z,10.85
2018-03-31T19:43:45.113Z,11.02
2018-03-31T19:46:12.731Z,10.99
2018-03-31T19:48:40.695Z,11.09
2018-03-31T19:51:08.416Z,10.85
2018-03-31T19:53:36.103Z,10.44
2018-03-31T19:56:03.677Z,10.05
2018-03-31T19:58:31.716Z,10.16
2018-03-31T20:00:59.301Z,10.44
2018-03-31T20:03:26.936Z,10.57
2018-03-31T20:05:54.592Z,10.55
2018-03-31T20:08:22.278Z,10.37
2018-03-31T20:10:50.609Z,10.28
2018-03-31T20:13:18.199Z,10.27
2018-03-31T20:15:45.772Z,10.46
2018-03-31T20:18:13.330Z,10.25
2018-03-31T20:20:40.903Z,10.24
2018-03-31T20:23:08.481Z,10.28
2018-03-31T20:25:36.452Z,9.87
2018-03-31T20:28:04.427Z,9.96
2018-03-31T20:30:32.134Z,10.32
2018-03-31T20:32:59.820Z,10.26
2018-03-31T20:35:27.557Z,10.34
2018-03-31T20:37:55.180Z,10.23
2018-03-31T20:40:22.766Z,10.14
2018-03-31T20:42:50.346Z,10.38
2018-03-31T20:45:17.946Z,10.28
2018-03-31T20:47:45.543Z,10.18
2018-03-31T20:50:13.133Z,9.96
2018-03-31T20:52:40.698Z,9.71
2018-03-31T20:55:08.428Z,9.84
2018-03-31T20:57:35.994Z,10.07
2018-03-31T21:00:03.592Z,9.95
2018-03-31T21:02:31.172Z,9.82
2018-03-31T21:04:59.144Z,9.78
2018-03-31T21:07:27.104Z,9.62
2018-03-31T21:09:55.083Z,9.84
2018-03-31T21:12:23.052Z,10.00
2018-03-31T21:14:51.022Z,9.63
2018-03-31T21:17:18.636Z,9.59
2018-03-31T21:19:46.202Z,9.79
2018-03-31T21:22:13.776Z,10.02
2018-03-31T21:24:41.390Z,9.75
2018-03-31T21:27:08.961Z,9.89
2018-03-31T21:29:36.559Z,9.98
2018-03-31T21:32:04.105Z,9.66
2018-03-31T21:34:31.674Z,9.68
2018-03-31T21:36:59.259Z,9.65
2018-03-31T21:39:26.903Z,9.44
2018-03-31T21:41:54.480Z,9.41
2018-03-31T21:44:22.610Z,9.22
2018-03-31T21:46:50.203Z,9.48
2018-03-31T21:49:18.172Z,9.47
2018-03-31T21:51:46.151Z,9.42
2018-03-31T21:54:14.888Z,9.48
2018-03-31T21:56:42.460Z,9.40
2018-03-31T21:59:10.050Z,9.27
2018-03-31T22:01:37.992Z,9.12
2018-03-31T22:04:05.565Z,8.93
2018-03-31T22:06:33.313Z,9.14
2018-03-31T22:09:00.888Z,9.12
2018-03-31T22:11:28.478Z,8.97
2018-03-31T22:14:01.599Z,8.69
2018-03-31T22:16:29.167Z,8.83
2018-03-31T22:18:56.747Z,9.01
2018-03-31T22:21:24.313Z,9.07
2018-03-31T22:23:51.924Z,8.75
2018-03-31T22:26:19.494Z,8.60
2018-03-31T22:28:47.072Z,8.37
2018-03-31T22:31:14.638Z,8.52
2018-03-31T22:33:42.262Z,8.34
2018-03-31T22:36:09.869Z,8.58
2018-03-31T22:38:37.444Z,8.58
2018-03-31T22:41:05.093Z,8.68
2018-03-31T22:43:32.671Z,8.67
2018-03-31T22:46:00.230Z,8.34
2018-03-31T22:48:27.866Z,8.49
2018-03-31T22:50:55.423Z,8.18
2018-03-31T22:53:23.080Z,8.40
2018-03-31T22:55:50.643Z,8.49
2018-03-31T22:58:18.210Z,8.54
2018-03-31T23:00:46.564Z,8.44
2018-03-31T23:03:14.140Z,8.38
2018-03-31T23:05:41.730Z,8.08
2018-03-31T23:08:09.315Z,8.29
2018-03-31T23:13:10.599Z,8.27
2018-03-31T23:15:38.175Z,7.91
2018-03-31T23:18:06.094Z,7.77
2018-03-31T23:20:34.056Z,7.82
2018-03-31T23:23:01.644Z,7.71
2018-03-31T23:25:29.239Z,7.51
2018-03-31T23:27:56.800Z,7.49
2018-03-31T23:30:24.349Z,7.65
2018-03-31T23:32:51.923Z,7.61
2018-03-31T23:35:19.517Z,7.65
2018-03-31T23:37:47.548Z,7.69
2018-03-31T23:40:15.152Z,7.79
2018-03-31T23:42:42.766Z,7.80
2018-03-31T23:45:10.326Z,7.89
2018-03-31T23:47:37.895Z,8.18
2018-03-31T23:50:05.470Z,7.67
2018-03-31T23:52:33.047Z,7.82
2018-03-31T23:55:01.037Z,7.76
2018-03-31T23:57:29.034Z,7.62
2018-03-31T23:59:56.608Z,7.69
